AXY47C EDDS-LFLL
Flight info
| Callsign | AXY47C |
|---|---|
| Flight time | 0h 45m |
| Altitude | 30000 |
| Route | ROTWE Y126 TUBLO N850 NATOR DCT LUTIX DCT BENOT N869 MILPA |
| Aircraft | B737/M-SDE1FGHILORVWXY/HB1 |
Departure
| Time | 2026-05-05 18:19 |
|---|---|
| Airport | Stuttgart Airport (EDDS) |
Arrival
| Time | 2026-05-05 19:04 |
|---|---|
| Airport | Lyon Saint-Exupéry Airport (LFLL) |
| Time | Latitude | Longitude | Altitude | Speed | Heading |
|---|---|---|---|---|---|
| 2026-05-05 17:30 | 48.69178 | 9.20599 | 1279 ft | 0 kts | 343° |
| 2026-05-05 18:03 | 48.69158 | 9.20611 | 1280 ft | 4 kts | 327° |
| 2026-05-05 18:04 | 48.69141 | 9.20639 | 1278 ft | 4 kts | 289° |
| 2026-05-05 18:04 | 48.69140 | 9.20669 | 1278 ft | 1 kts | 254° |
| 2026-05-05 18:04 | 48.69141 | 9.20674 | 1277 ft | 0 kts | 254° |
| 2026-05-05 18:12 | 48.69137 | 9.20650 | 1278 ft | 5 kts | 254° |
| 2026-05-05 18:12 | 48.69127 | 9.20600 | 1279 ft | 3 kts | 254° |
| 2026-05-05 18:12 | 48.69127 | 9.20599 | 1279 ft | 0 kts | 254° |
| 2026-05-05 18:12 | 48.69124 | 9.20584 | 1280 ft | 5 kts | 254° |
| 2026-05-05 18:13 | 48.69113 | 9.20527 | 1282 ft | 6 kts | 246° |
| 2026-05-05 18:13 | 48.69089 | 9.20488 | 1283 ft | 5 kts | 212° |
| 2026-05-05 18:13 | 48.69043 | 9.20495 | 1287 ft | 10 kts | 150° |
| 2026-05-05 18:13 | 48.68980 | 9.20575 | 1282 ft | 14 kts | 130° |
| 2026-05-05 18:14 | 48.68972 | 9.20729 | 1278 ft | 18 kts | 75° |
| 2026-05-05 18:14 | 48.69011 | 9.20934 | 1272 ft | 23 kts | 74° |
| 2026-05-05 18:14 | 48.69059 | 9.21187 | 1269 ft | 27 kts | 73° |
| 2026-05-05 18:14 | 48.69110 | 9.21462 | 1259 ft | 27 kts | 73° |
| 2026-05-05 18:15 | 48.69164 | 9.21758 | 1258 ft | 31 kts | 74° |
| 2026-05-05 18:15 | 48.69219 | 9.22047 | 1241 ft | 27 kts | 74° |
| 2026-05-05 18:15 | 48.69276 | 9.22345 | 1231 ft | 32 kts | 74° |
| 2026-05-05 18:15 | 48.69341 | 9.22685 | 1221 ft | 34 kts | 73° |
| 2026-05-05 18:16 | 48.69378 | 9.22883 | 1216 ft | 19 kts | 74° |
| 2026-05-05 18:16 | 48.69419 | 9.23098 | 1211 ft | 24 kts | 72° |
| 2026-05-05 18:16 | 48.69468 | 9.23351 | 1206 ft | 24 kts | 75° |
| 2026-05-05 18:16 | 48.69514 | 9.23611 | 1201 ft | 26 kts | 89° |
| 2026-05-05 18:17 | 48.69437 | 9.23734 | 1199 ft | 16 kts | 183° |
| 2026-05-05 18:17 | 48.69359 | 9.23663 | 1200 ft | 11 kts | 224° |
| 2026-05-05 18:17 | 48.69303 | 9.23573 | 1202 ft | 12 kts | 227° |
| 2026-05-05 18:17 | 48.69249 | 9.23485 | 1205 ft | 11 kts | 227° |
| 2026-05-05 18:18 | 48.69219 | 9.23403 | 1208 ft | 7 kts | 246° |
| 2026-05-05 18:18 | 48.69194 | 9.23295 | 1210 ft | 18 kts | 253° |
| 2026-05-05 18:18 | 48.69122 | 9.22914 | 1219 ft | 72 kts | 254° |
| 2026-05-05 18:18 | 48.68921 | 9.21854 | 1251 ft | 138 kts | 254° |
| 2026-05-05 18:19 | 48.68627 | 9.20205 | 1407 ft | 181 kts | 255° |
| 2026-05-05 18:19 | 48.68359 | 9.18339 | 2255 ft | 183 kts | 259° |
| 2026-05-05 18:19 | 48.68160 | 9.16407 | 3089 ft | 189 kts | 261° |
| 2026-05-05 18:19 | 48.67904 | 9.14403 | 3819 ft | 200 kts | 255° |
| 2026-05-05 18:20 | 48.67501 | 9.12310 | 4553 ft | 215 kts | 251° |
| 2026-05-05 18:20 | 48.67004 | 9.10096 | 5311 ft | 227 kts | 251° |
| 2026-05-05 18:20 | 48.66476 | 9.07786 | 6132 ft | 240 kts | 250° |
| 2026-05-05 18:20 | 48.65929 | 9.05327 | 6852 ft | 253 kts | 251° |
| 2026-05-05 18:21 | 48.65393 | 9.02786 | 7840 ft | 255 kts | 251° |
| 2026-05-05 18:21 | 48.64864 | 9.00205 | 8793 ft | 259 kts | 251° |
| 2026-05-05 18:21 | 48.64145 | 8.97707 | 9730 ft | 261 kts | 236° |
| 2026-05-05 18:21 | 48.62892 | 8.95656 | 10395 ft | 275 kts | 221° |
| 2026-05-05 18:22 | 48.61417 | 8.93715 | 10797 ft | 295 kts | 223° |
| 2026-05-05 18:22 | 48.59847 | 8.91569 | 11245 ft | 312 kts | 223° |
| 2026-05-05 18:22 | 48.58211 | 8.89307 | 11822 ft | 325 kts | 223° |
| 2026-05-05 18:22 | 48.56533 | 8.86968 | 12572 ft | 330 kts | 223° |
| 2026-05-05 18:23 | 48.54827 | 8.84584 | 13085 ft | 337 kts | 223° |
| 2026-05-05 18:23 | 48.53112 | 8.82184 | 13175 ft | 336 kts | 223° |
| 2026-05-05 18:23 | 48.51396 | 8.79783 | 13271 ft | 337 kts | 223° |
| 2026-05-05 18:23 | 48.49670 | 8.77370 | 13794 ft | 338 kts | 223° |
| 2026-05-05 18:24 | 48.47939 | 8.74953 | 14550 ft | 342 kts | 223° |
| 2026-05-05 18:24 | 48.46179 | 8.72497 | 15253 ft | 347 kts | 223° |
| 2026-05-05 18:24 | 48.44399 | 8.70014 | 15979 ft | 351 kts | 223° |
| 2026-05-05 18:24 | 48.42595 | 8.67502 | 16682 ft | 355 kts | 223° |
| 2026-05-05 18:25 | 48.40769 | 8.64960 | 17373 ft | 360 kts | 223° |
| 2026-05-05 18:25 | 48.39550 | 8.63266 | 17846 ft | 362 kts | 223° |
| 2026-05-05 18:25 | 48.37054 | 8.59801 | 18673 ft | 368 kts | 223° |
| 2026-05-05 18:25 | 48.35188 | 8.57213 | 19251 ft | 372 kts | 223° |
| 2026-05-05 18:26 | 48.33277 | 8.54565 | 19834 ft | 375 kts | 222° |
| 2026-05-05 18:26 | 48.31346 | 8.51893 | 20414 ft | 379 kts | 222° |
| 2026-05-05 18:26 | 48.29395 | 8.49196 | 20989 ft | 383 kts | 222° |
| 2026-05-05 18:26 | 48.27423 | 8.46473 | 21564 ft | 386 kts | 221° |
| 2026-05-05 18:27 | 48.25439 | 8.43735 | 22120 ft | 390 kts | 221° |
| 2026-05-05 18:27 | 48.23431 | 8.40969 | 22682 ft | 394 kts | 221° |
| 2026-05-05 18:27 | 48.21405 | 8.38180 | 23233 ft | 397 kts | 221° |
| 2026-05-05 18:27 | 48.19359 | 8.35366 | 23715 ft | 401 kts | 221° |
| 2026-05-05 18:28 | 48.14987 | 8.30176 | 24676 ft | 403 kts | 211° |
| 2026-05-05 18:28 | 48.12653 | 8.27925 | 25123 ft | 406 kts | 212° |
| 2026-05-05 18:28 | 48.10276 | 8.25627 | 25579 ft | 408 kts | 212° |
| 2026-05-05 18:29 | 48.07885 | 8.23319 | 26026 ft | 410 kts | 212° |
| 2026-05-05 18:29 | 48.05481 | 8.21003 | 26485 ft | 412 kts | 212° |
| 2026-05-05 18:29 | 48.03064 | 8.18677 | 26926 ft | 414 kts | 212° |
| 2026-05-05 18:29 | 48.00633 | 8.16340 | 27356 ft | 417 kts | 212° |
| 2026-05-05 18:30 | 47.98191 | 8.13994 | 27795 ft | 419 kts | 212° |
| 2026-05-05 18:30 | 47.95734 | 8.11638 | 28208 ft | 421 kts | 212° |
| 2026-05-05 18:30 | 47.93266 | 8.09273 | 28636 ft | 423 kts | 212° |
| 2026-05-05 18:30 | 47.90785 | 8.06899 | 29049 ft | 425 kts | 212° |
| 2026-05-05 18:31 | 47.88325 | 8.04547 | 29443 ft | 427 kts | 212° |
| 2026-05-05 18:31 | 47.85819 | 8.02154 | 29806 ft | 429 kts | 212° |
| 2026-05-05 18:31 | 47.80789 | 7.97361 | 29889 ft | 428 kts | 212° |
| 2026-05-05 18:32 | 47.75776 | 7.92594 | 29896 ft | 428 kts | 212° |
| 2026-05-05 18:32 | 47.70763 | 7.87839 | 29870 ft | 427 kts | 212° |
| 2026-05-05 18:33 | 47.65758 | 7.83102 | 29863 ft | 427 kts | 212° |
| 2026-05-05 18:33 | 47.60752 | 7.78375 | 29871 ft | 426 kts | 212° |
| 2026-05-05 18:34 | 47.55746 | 7.73659 | 29864 ft | 426 kts | 212° |
| 2026-05-05 18:34 | 47.50792 | 7.69002 | 29857 ft | 425 kts | 212° |
| 2026-05-05 18:35 | 47.45806 | 7.64326 | 29870 ft | 424 kts | 213° |
| 2026-05-05 18:35 | 47.40832 | 7.59671 | 29867 ft | 423 kts | 213° |
| 2026-05-05 18:36 | 47.35863 | 7.55033 | 29887 ft | 423 kts | 212° |
| 2026-05-05 18:36 | 47.30894 | 7.50404 | 29897 ft | 423 kts | 212° |
| 2026-05-05 18:37 | 47.25954 | 7.45813 | 29884 ft | 422 kts | 212° |
| 2026-05-05 18:37 | 47.20979 | 7.41198 | 29886 ft | 423 kts | 212° |
| 2026-05-05 18:38 | 47.16203 | 7.36227 | 29873 ft | 422 kts | 227° |
| 2026-05-05 18:38 | 47.12477 | 7.29546 | 29882 ft | 423 kts | 230° |
| 2026-05-05 18:39 | 47.08785 | 7.22813 | 29889 ft | 423 kts | 230° |
| 2026-05-05 18:39 | 47.05134 | 7.16115 | 29892 ft | 423 kts | 230° |
| 2026-05-05 18:40 | 47.01462 | 7.09385 | 29890 ft | 423 kts | 230° |
| 2026-05-05 18:40 | 46.97789 | 7.02671 | 29888 ft | 422 kts | 230° |
| 2026-05-05 18:41 | 46.94119 | 6.95977 | 29889 ft | 421 kts | 230° |
| 2026-05-05 18:41 | 46.90449 | 6.89301 | 29884 ft | 421 kts | 230° |
| 2026-05-05 18:42 | 46.86782 | 6.82647 | 29885 ft | 420 kts | 230° |
| 2026-05-05 18:42 | 46.83151 | 6.76075 | 29648 ft | 413 kts | 229° |
| 2026-05-05 18:43 | 46.81352 | 6.72825 | 29393 ft | 410 kts | 229° |
| 2026-05-05 18:43 | 46.79566 | 6.69601 | 29132 ft | 408 kts | 229° |
| 2026-05-05 18:43 | 46.77786 | 6.66392 | 28873 ft | 406 kts | 229° |
| 2026-05-05 18:43 | 46.76010 | 6.63194 | 28609 ft | 404 kts | 229° |
| 2026-05-05 18:44 | 46.74242 | 6.60013 | 28367 ft | 403 kts | 229° |
| 2026-05-05 18:44 | 46.72450 | 6.56896 | 28119 ft | 401 kts | 227° |
| 2026-05-05 18:44 | 46.70597 | 6.53867 | 27863 ft | 400 kts | 227° |
| 2026-05-05 18:44 | 46.68757 | 6.50841 | 27624 ft | 398 kts | 227° |
| 2026-05-05 18:45 | 46.66923 | 6.47819 | 27382 ft | 397 kts | 227° |
| 2026-05-05 18:45 | 46.65124 | 6.44853 | 27145 ft | 396 kts | 227° |
| 2026-05-05 18:45 | 46.63305 | 6.41855 | 26905 ft | 395 kts | 227° |
| 2026-05-05 18:45 | 46.61492 | 6.38871 | 26617 ft | 391 kts | 227° |
| 2026-05-05 18:46 | 46.59748 | 6.35845 | 25836 ft | 391 kts | 233° |
| 2026-05-05 18:46 | 46.58186 | 6.32640 | 24966 ft | 385 kts | 232° |
| 2026-05-05 18:46 | 46.56623 | 6.29506 | 24150 ft | 380 kts | 232° |
| 2026-05-05 18:46 | 46.55068 | 6.26423 | 23346 ft | 376 kts | 232° |
| 2026-05-05 18:47 | 46.53524 | 6.23383 | 22431 ft | 372 kts | 232° |
| 2026-05-05 18:47 | 46.51995 | 6.20383 | 21569 ft | 367 kts | 232° |
| 2026-05-05 18:47 | 46.50483 | 6.17421 | 20739 ft | 363 kts | 232° |
| 2026-05-05 18:47 | 46.48987 | 6.14497 | 19946 ft | 359 kts | 232° |
| 2026-05-05 18:48 | 46.47529 | 6.11649 | 19198 ft | 354 kts | 232° |
| 2026-05-05 18:48 | 46.46068 | 6.08798 | 18476 ft | 350 kts | 232° |
| 2026-05-05 18:48 | 46.44625 | 6.05986 | 17902 ft | 346 kts | 232° |
| 2026-05-05 18:48 | 46.43188 | 6.03188 | 17783 ft | 345 kts | 232° |
| 2026-05-05 18:49 | 46.41755 | 6.00399 | 16918 ft | 343 kts | 232° |
| 2026-05-05 18:49 | 46.40326 | 5.97624 | 16164 ft | 344 kts | 232° |
| 2026-05-05 18:49 | 46.38899 | 5.94852 | 15864 ft | 340 kts | 232° |
| 2026-05-05 18:49 | 46.37479 | 5.92099 | 15880 ft | 343 kts | 232° |
| 2026-05-05 18:50 | 46.36050 | 5.89330 | 15888 ft | 343 kts | 232° |
| 2026-05-05 18:50 | 46.34617 | 5.86557 | 15887 ft | 344 kts | 232° |
| 2026-05-05 18:50 | 46.33183 | 5.83784 | 15887 ft | 344 kts | 232° |
| 2026-05-05 18:50 | 46.31768 | 5.81050 | 15893 ft | 344 kts | 232° |
| 2026-05-05 18:51 | 46.30333 | 5.78280 | 15852 ft | 342 kts | 232° |
| 2026-05-05 18:51 | 46.28905 | 5.75527 | 15038 ft | 340 kts | 232° |
| 2026-05-05 18:51 | 46.27495 | 5.72811 | 14336 ft | 335 kts | 232° |
| 2026-05-05 18:51 | 46.26106 | 5.70137 | 13704 ft | 329 kts | 232° |
| 2026-05-05 18:52 | 46.24757 | 5.67543 | 13247 ft | 317 kts | 232° |
| 2026-05-05 18:52 | 46.23455 | 5.65044 | 12800 ft | 306 kts | 232° |
| 2026-05-05 18:52 | 46.22200 | 5.62636 | 12401 ft | 295 kts | 232° |
| 2026-05-05 18:52 | 46.20989 | 5.60313 | 12009 ft | 285 kts | 232° |
| 2026-05-05 18:53 | 46.19818 | 5.58069 | 11639 ft | 275 kts | 232° |
| 2026-05-05 18:53 | 46.18688 | 5.55906 | 11288 ft | 266 kts | 232° |
| 2026-05-05 18:53 | 46.17591 | 5.53807 | 10941 ft | 258 kts | 232° |
| 2026-05-05 18:53 | 46.16525 | 5.51770 | 10512 ft | 252 kts | 232° |
| 2026-05-05 18:54 | 46.15484 | 5.49782 | 10014 ft | 251 kts | 232° |
| 2026-05-05 18:54 | 46.14437 | 5.47783 | 9526 ft | 249 kts | 232° |
| 2026-05-05 18:54 | 46.13391 | 5.45789 | 9041 ft | 249 kts | 232° |
| 2026-05-05 18:54 | 46.12351 | 5.43806 | 8678 ft | 245 kts | 232° |
| 2026-05-05 18:55 | 46.11328 | 5.41858 | 8465 ft | 240 kts | 232° |
| 2026-05-05 18:55 | 46.10338 | 5.39973 | 8310 ft | 233 kts | 232° |
| 2026-05-05 18:55 | 46.09360 | 5.38114 | 8009 ft | 232 kts | 232° |
| 2026-05-05 18:55 | 46.08386 | 5.36262 | 7711 ft | 232 kts | 232° |
| 2026-05-05 18:56 | 46.07412 | 5.34411 | 7416 ft | 231 kts | 232° |
| 2026-05-05 18:56 | 46.06443 | 5.32571 | 7134 ft | 230 kts | 232° |
| 2026-05-05 18:56 | 46.05489 | 5.30763 | 6861 ft | 229 kts | 232° |
| 2026-05-05 18:56 | 46.04528 | 5.28939 | 6565 ft | 229 kts | 232° |
| 2026-05-05 18:57 | 46.03569 | 5.27122 | 6340 ft | 227 kts | 232° |
| 2026-05-05 18:57 | 46.02611 | 5.25309 | 6163 ft | 228 kts | 232° |
| 2026-05-05 18:57 | 46.01653 | 5.23495 | 5985 ft | 228 kts | 232° |
| 2026-05-05 18:57 | 46.00692 | 5.21679 | 5794 ft | 228 kts | 232° |
| 2026-05-05 18:58 | 45.99732 | 5.19863 | 5615 ft | 228 kts | 232° |
| 2026-05-05 18:58 | 45.99095 | 5.18661 | 5479 ft | 228 kts | 232° |
| 2026-05-05 18:58 | 45.98135 | 5.16849 | 5309 ft | 228 kts | 232° |
| 2026-05-05 18:58 | 45.97175 | 5.15037 | 5141 ft | 228 kts | 232° |
| 2026-05-05 18:59 | 45.96212 | 5.13224 | 4947 ft | 228 kts | 232° |
| 2026-05-05 18:59 | 45.94940 | 5.10827 | 4724 ft | 228 kts | 232° |
| 2026-05-05 18:59 | 45.93979 | 5.09020 | 4531 ft | 227 kts | 231° |
| 2026-05-05 18:59 | 45.93235 | 5.07974 | 4388 ft | 226 kts | 214° |
| 2026-05-05 19:00 | 45.91778 | 5.07175 | 4201 ft | 226 kts | 189° |
| 2026-05-05 19:00 | 45.90218 | 5.07115 | 4001 ft | 224 kts | 178° |
| 2026-05-05 19:00 | 45.88693 | 5.07311 | 3827 ft | 215 kts | 176° |
| 2026-05-05 19:00 | 45.87221 | 5.07505 | 3527 ft | 210 kts | 177° |
| 2026-05-05 19:01 | 45.85778 | 5.07685 | 3227 ft | 206 kts | 177° |
| 2026-05-05 19:01 | 45.84373 | 5.07858 | 2945 ft | 196 kts | 177° |
| 2026-05-05 19:01 | 45.83105 | 5.08014 | 2711 ft | 171 kts | 177° |
| 2026-05-05 19:01 | 45.81996 | 5.08149 | 2476 ft | 150 kts | 178° |
| 2026-05-05 19:02 | 45.81012 | 5.08270 | 2279 ft | 137 kts | 178° |
| 2026-05-05 19:02 | 45.80068 | 5.08386 | 2101 ft | 136 kts | 177° |
| 2026-05-05 19:02 | 45.79121 | 5.08501 | 1924 ft | 137 kts | 177° |
| 2026-05-05 19:02 | 45.78175 | 5.08616 | 1737 ft | 139 kts | 176° |
| 2026-05-05 19:03 | 45.77202 | 5.08735 | 1552 ft | 142 kts | 175° |
| 2026-05-05 19:03 | 45.76204 | 5.08856 | 1346 ft | 145 kts | 175° |
| 2026-05-05 19:03 | 45.75190 | 5.08981 | 1157 ft | 147 kts | 175° |
| 2026-05-05 19:03 | 45.74175 | 5.09105 | 965 ft | 146 kts | 174° |
| 2026-05-05 19:04 | 45.73184 | 5.09224 | 799 ft | 137 kts | 175° |
| 2026-05-05 19:04 | 45.72448 | 5.09317 | 813 ft | 74 kts | 175° |
| 2026-05-05 19:04 | 45.72151 | 5.09319 | 815 ft | 29 kts | 205° |
| 2026-05-05 19:04 | 45.72033 | 5.09240 | 818 ft | 6 kts | 204° |
| 2026-05-05 19:05 | 45.72032 | 5.09239 | 818 ft | 0 kts | 204° |
| 2026-05-05 19:05 | 45.72031 | 5.09239 | 818 ft | 1 kts | 204° |
| 2026-05-05 19:05 | 45.72011 | 5.09221 | 816 ft | 6 kts | 219° |
| 2026-05-05 19:05 | 45.71986 | 5.09134 | 814 ft | 13 kts | 263° |
| 2026-05-05 19:06 | 45.71975 | 5.08991 | 813 ft | 15 kts | 265° |
| 2026-05-05 19:06 | 45.71964 | 5.08835 | 813 ft | 14 kts | 264° |
| 2026-05-05 19:06 | 45.71953 | 5.08688 | 810 ft | 16 kts | 264° |
| 2026-05-05 19:06 | 45.71947 | 5.08584 | 815 ft | 0 kts | 266° |
| 2026-05-05 19:07 | 45.71947 | 5.08582 | 807 ft | 2 kts | 266° |
| 2026-05-05 19:07 | 45.71946 | 5.08528 | 806 ft | 8 kts | 278° |
| 2026-05-05 19:07 | 45.71996 | 5.08461 | 804 ft | 12 kts | 344° |
| 2026-05-05 19:07 | 45.72086 | 5.08444 | 805 ft | 14 kts | 354° |
| 2026-05-05 19:08 | 45.72185 | 5.08434 | 803 ft | 10 kts | 356° |
| 2026-05-05 19:08 | 45.72240 | 5.08423 | 802 ft | 10 kts | 336° |
| 2026-05-05 19:08 | 45.72253 | 5.08329 | 800 ft | 11 kts | 250° |
| 2026-05-05 19:08 | 45.72229 | 5.08241 | 799 ft | 7 kts | 248° |
| 2026-05-05 19:09 | 45.72220 | 5.08209 | 799 ft | 1 kts | 248° |
| 2026-05-05 19:09 | 45.72216 | 5.08193 | 799 ft | 0 kts | 248° |